createdAt,value
2017-11-23T00:01:59.620Z,100680.86
2017-11-23T00:04:30.581Z,100682.98
2017-11-23T00:06:59.462Z,100678.31
2017-11-23T00:09:28.411Z,100683.33
2017-11-23T00:11:57.747Z,100690.48
2017-11-23T00:14:26.842Z,100685.42
2017-11-23T00:16:56.177Z,100687.52
2017-11-23T00:19:25.016Z,100699.39
2017-11-23T00:21:54.046Z,100697.30
2017-11-23T00:24:23.167Z,100699.88
2017-11-23T00:26:52.095Z,100701.58
2017-11-23T00:29:21.340Z,100707.50
2017-11-23T00:31:56.912Z,100717.22
2017-11-23T00:37:00.479Z,100720.00
2017-11-23T00:39:40.233Z,100717.89
2017-11-23T00:42:09.245Z,100716.19
2017-11-23T00:44:38.165Z,100721.29
2017-11-23T00:47:07.285Z,100719.58
2017-11-23T00:49:36.340Z,100727.63
2017-11-23T00:52:07.819Z,100729.72
2017-11-23T00:54:37.555Z,100726.75
2017-11-23T00:57:06.622Z,100724.22
2017-11-23T00:59:35.463Z,100721.23
2017-11-23T01:02:05.292Z,100719.48
2017-11-23T01:04:34.426Z,100717.00
2017-11-23T01:07:03.250Z,100718.66
2017-11-23T01:09:37.362Z,100723.73
2017-11-23T01:12:06.213Z,100714.42
2017-11-23T01:14:35.467Z,100712.80
2017-11-23T01:17:04.461Z,100711.95
2017-11-23T01:19:33.368Z,100714.48
2017-11-23T01:24:52.401Z,100709.41
2017-11-23T01:27:21.342Z,100708.56
2017-11-23T01:29:50.290Z,100715.67
2017-11-23T01:32:19.355Z,100714.41
2017-11-23T01:34:48.200Z,100706.82
2017-11-23T01:37:20.145Z,100714.40
2017-11-23T01:39:55.127Z,100719.46
2017-11-23T01:42:25.809Z,100719.88
2017-11-23T01:44:54.934Z,100729.61
2017-11-23T01:47:24.209Z,100727.95
2017-11-23T01:49:54.735Z,100724.12
2017-11-23T01:52:23.770Z,100727.92
2017-11-23T01:54:52.739Z,100722.86
2017-11-23T01:57:21.754Z,100719.91
2017-11-23T01:59:50.840Z,100718.23
2017-11-23T02:02:19.739Z,100720.83
2017-11-23T02:04:48.838Z,100718.31
2017-11-23T02:07:17.857Z,100711.53
2017-11-23T02:09:46.835Z,100717.39
2017-11-23T02:12:15.987Z,100713.65
2017-11-23T02:14:50.161Z,100713.66
2017-11-23T02:17:19.428Z,100720.42
2017-11-23T02:19:49.761Z,100717.36
2017-11-23T02:22:18.776Z,100723.34
2017-11-23T02:24:48.898Z,100720.75
2017-11-23T02:27:17.874Z,100724.19
2017-11-23T02:29:46.990Z,100725.84
2017-11-23T02:32:16.983Z,100730.47
2017-11-23T02:34:46.080Z,100733.81
2017-11-23T02:37:15.128Z,100730.88
2017-11-23T02:39:46.947Z,100735.56
2017-11-23T02:42:16.000Z,100741.10
2017-11-23T02:44:45.025Z,100736.03
2017-11-23T02:47:14.301Z,100748.66
2017-11-23T02:49:43.310Z,100751.97
2017-11-23T02:52:12.451Z,100753.65
2017-11-23T02:54:41.807Z,100747.35
2017-11-23T02:57:16.470Z,100743.94
2017-11-23T02:59:48.414Z,100747.36
2017-11-23T03:02:17.437Z,100748.61
2017-11-23T03:04:46.461Z,100751.58
2017-11-23T03:07:20.839Z,100739.77
2017-11-23T03:09:53.497Z,100740.17
2017-11-23T03:12:22.853Z,100738.47
2017-11-23T03:14:51.692Z,100738.92
2017-11-23T03:17:20.697Z,100743.55
2017-11-23T03:19:52.868Z,100749.84
2017-11-23T03:22:21.844Z,100749.80
2017-11-23T03:24:50.693Z,100757.08
2017-11-23T03:27:19.973Z,100754.54
2017-11-23T03:29:49.046Z,100761.28
2017-11-23T03:32:18.066Z,100757.95
2017-11-23T03:34:46.942Z,100756.22
2017-11-23T03:37:15.974Z,100762.98
2017-11-23T03:39:44.803Z,100762.53
2017-11-23T03:42:19.898Z,100769.32
2017-11-23T03:44:49.645Z,100767.20
2017-11-23T03:47:18.902Z,100764.65
2017-11-23T03:49:48.799Z,100767.17
2017-11-23T03:52:17.681Z,100767.63
2017-11-23T03:54:46.664Z,100769.36
2017-11-23T03:57:17.274Z,100773.16
2017-11-23T03:59:46.221Z,100775.66
2017-11-23T04:02:15.355Z,100784.15
2017-11-23T04:07:17.855Z,100783.28
2017-11-23T04:09:46.745Z,100782.88
2017-11-23T04:12:16.589Z,100786.25
2017-11-23T04:14:45.577Z,100793.83
2017-11-23T04:17:14.745Z,100789.64
2017-11-23T04:19:44.552Z,100791.28
2017-11-23T04:22:13.545Z,100791.30
2017-11-23T04:24:42.438Z,100788.30
2017-11-23T04:27:13.151Z,100794.31
2017-11-23T04:29:42.145Z,100791.43
2017-11-23T04:32:11.001Z,100794.81
2017-11-23T04:34:39.980Z,100800.31
2017-11-23T04:37:09.030Z,100802.45
2017-11-23T04:39:37.926Z,100802.82
2017-11-23T04:44:40.899Z,100806.17
2017-11-23T04:47:09.850Z,100807.02
2017-11-23T04:49:38.731Z,100812.14
2017-11-23T04:52:10.119Z,100817.70
2017-11-23T04:54:40.960Z,100827.01
2017-11-23T04:57:10.071Z,100832.11
2017-11-23T04:59:39.324Z,100826.95
2017-11-23T05:02:08.235Z,100831.62
2017-11-23T05:04:37.159Z,100835.86
2017-11-23T05:07:06.068Z,100839.64
2017-11-23T05:09:35.017Z,100845.97
2017-11-23T05:12:03.848Z,100848.97
2017-11-23T05:14:32.767Z,100851.92
2017-11-23T05:17:02.510Z,100856.55
2017-11-23T05:19:31.333Z,100857.39
2017-11-23T05:22:00.212Z,100863.74
2017-11-23T05:24:29.345Z,100870.11
2017-11-23T05:27:04.175Z,100872.24
2017-11-23T05:29:34.348Z,100873.94
2017-11-23T05:32:04.499Z,100878.69
2017-11-23T05:34:33.380Z,100879.12
2017-11-23T05:37:03.536Z,100887.06
2017-11-23T05:39:32.370Z,100884.97
2017-11-23T05:42:01.696Z,100890.47
2017-11-23T05:44:32.907Z,100891.37
2017-11-23T05:47:07.568Z,100894.78
2017-11-23T05:49:36.723Z,100896.88
2017-11-23T05:52:05.899Z,100899.47
2017-11-23T05:54:34.939Z,100902.44
2017-11-23T05:57:04.696Z,100910.48
2017-11-23T05:59:35.879Z,100907.94
2017-11-23T06:02:08.475Z,100916.78
2017-11-23T06:04:37.504Z,100901.56
2017-11-23T06:07:11.463Z,100911.32
2017-11-23T06:09:40.404Z,100904.16
2017-11-23T06:12:10.218Z,100905.86
2017-11-23T06:14:39.166Z,100909.33
2017-11-23T06:17:07.971Z,100915.70
2017-11-23T06:19:37.982Z,100912.30
2017-11-23T06:22:09.176Z,100910.23
2017-11-23T06:24:47.625Z,100912.83
2017-11-23T06:27:16.591Z,100919.23
2017-11-23T06:29:45.494Z,100918.45
2017-11-23T06:32:14.282Z,100921.00
2017-11-23T06:34:44.777Z,100920.58
2017-11-23T06:37:14.541Z,100926.55
2017-11-23T06:39:43.859Z,100923.26
2017-11-23T06:42:12.775Z,100922.81
2017-11-23T06:44:41.621Z,100937.66
2017-11-23T06:47:10.522Z,100937.98
2017-11-23T06:49:39.490Z,100947.39
2017-11-23T06:52:08.313Z,100950.05
2017-11-23T06:54:37.284Z,100946.67
2017-11-23T06:57:07.153Z,100942.52
2017-11-23T06:59:35.997Z,100945.14
2017-11-23T07:02:05.004Z,100950.25
2017-11-23T07:04:34.818Z,100951.95
2017-11-23T07:07:03.807Z,100957.88
2017-11-23T07:09:32.862Z,100964.72
2017-11-23T07:12:02.843Z,100967.26
2017-11-23T07:14:31.813Z,100965.08
2017-11-23T07:17:00.770Z,100965.14
2017-11-23T07:19:29.629Z,100960.52
2017-11-23T07:21:58.526Z,100965.22
2017-11-23T07:24:27.356Z,100959.25
2017-11-23T07:26:58.216Z,100963.48
2017-11-23T07:29:27.090Z,100965.65
2017-11-23T07:31:56.470Z,100971.58
2017-11-23T07:34:27.286Z,100968.22
2017-11-23T07:36:56.141Z,100967.36
2017-11-23T07:39:25.301Z,100967.34
2017-11-23T07:41:54.334Z,100969.90
2017-11-23T07:44:23.166Z,100973.72
2017-11-23T07:46:51.985Z,100978.84
2017-11-23T07:49:20.859Z,100979.67
2017-11-23T07:51:50.080Z,100989.87
2017-11-23T07:54:19.008Z,100991.14
2017-11-23T07:56:48.114Z,100979.25
2017-11-23T07:59:17.039Z,100975.41
2017-11-23T08:01:45.869Z,100986.89
2017-11-23T08:06:49.133Z,101001.76
2017-11-23T08:09:17.967Z,100991.15
2017-11-23T08:11:47.665Z,100992.42
2017-11-23T08:14:16.528Z,100997.06
2017-11-23T08:16:45.364Z,100996.19
2017-11-23T08:19:14.302Z,101005.98
2017-11-23T08:21:43.336Z,101003.85
2017-11-23T08:24:12.207Z,101004.69
2017-11-23T08:26:41.067Z,101003.41
2017-11-23T08:29:09.939Z,100998.31
2017-11-23T08:31:38.900Z,101001.75
2017-11-23T08:34:07.816Z,101005.55
2017-11-23T08:36:36.906Z,101011.08
2017-11-23T08:39:06.835Z,101013.59
2017-11-23T08:41:36.672Z,101014.47
2017-11-23T08:44:05.542Z,101017.41
2017-11-23T08:46:36.723Z,101028.93
2017-11-23T08:49:05.599Z,101027.23
2017-11-23T08:51:34.404Z,101028.52
2017-11-23T08:54:03.323Z,101025.56
2017-11-23T08:56:37.359Z,101033.19
2017-11-23T08:59:06.683Z,101025.12
2017-11-23T09:01:44.044Z,101025.53
2017-11-23T09:04:13.360Z,101014.48
2017-11-23T09:06:42.849Z,101013.64
2017-11-23T09:09:13.079Z,101015.74
2017-11-23T09:11:42.038Z,101019.98
2017-11-23T09:14:10.955Z,101014.92
2017-11-23T09:16:40.726Z,101010.25
2017-11-23T09:19:09.638Z,101006.42
2017-11-23T09:21:38.622Z,101008.58
2017-11-23T09:24:07.567Z,101008.12
2017-11-23T09:26:36.452Z,101007.28
2017-11-23T09:29:05.373Z,101012.38
2017-11-23T09:31:34.342Z,101008.53
2017-11-23T09:34:03.260Z,101011.52
2017-11-23T09:36:32.256Z,101010.66
2017-11-23T09:39:01.276Z,101000.48
2017-11-23T09:41:30.228Z,100990.71
2017-11-23T09:43:59.142Z,100990.72
2017-11-23T09:46:28.977Z,100991.98
2017-11-23T09:48:57.899Z,100993.66
2017-11-23T09:51:26.824Z,100995.81
2017-11-23T09:53:58.416Z,100994.97
2017-11-23T09:56:27.306Z,100992.00
2017-11-23T09:58:56.240Z,100988.95
2017-11-23T10:01:25.234Z,100985.08
2017-11-23T10:03:54.033Z,100981.26
2017-11-23T10:06:22.865Z,100983.48
2017-11-23T10:08:51.783Z,100971.58
2017-11-23T10:11:20.766Z,100977.45
2017-11-23T10:13:49.657Z,100971.89
2017-11-23T10:16:18.582Z,100975.98
2017-11-23T10:18:47.537Z,100971.41
2017-11-23T10:21:16.459Z,100971.33
2017-11-23T10:23:45.332Z,100969.94
2017-11-23T10:26:14.231Z,100966.97
2017-11-23T10:28:43.108Z,100975.81
2017-11-23T10:31:13.662Z,100979.57
2017-11-23T10:33:42.549Z,100982.56
2017-11-23T10:36:11.482Z,100979.82
2017-11-23T10:38:40.453Z,100981.67
2017-11-23T10:41:09.385Z,100974.83
2017-11-23T10:43:38.256Z,100979.94
2017-11-23T10:46:07.163Z,100980.75
2017-11-23T10:48:36.116Z,100981.55
2017-11-23T10:51:05.196Z,100982.09
2017-11-23T10:53:35.853Z,100977.04
2017-11-23T10:56:04.675Z,100978.70
2017-11-23T10:58:33.503Z,100973.58
2017-11-23T11:01:02.503Z,100980.45
2017-11-23T11:03:31.422Z,100976.18
2017-11-23T11:06:00.298Z,100976.14
2017-11-23T11:08:29.250Z,100988.97
2017-11-23T11:10:58.152Z,100985.09
2017-11-23T11:13:27.004Z,100981.80
2017-11-23T11:15:55.879Z,100980.48
2017-11-23T11:18:24.822Z,100986.85
2017-11-23T11:20:53.703Z,100979.96
2017-11-23T11:23:23.382Z,100981.63
2017-11-23T11:25:52.297Z,100978.59
2017-11-23T11:28:21.108Z,100976.07
2017-11-23T11:30:51.605Z,100973.11
2017-11-23T11:33:20.571Z,100970.45
2017-11-23T11:35:49.546Z,100975.44
2017-11-23T11:38:20.206Z,100975.13
2017-11-23T11:40:49.035Z,100966.03
2017-11-23T11:43:17.944Z,100960.41
2017-11-23T11:57:47.220Z,100969.91
2017-11-23T12:00:16.080Z,100974.31
2017-11-23T12:02:45.006Z,100978.52
2017-11-23T12:05:15.558Z,100972.08
2017-11-23T12:07:44.408Z,100969.44
2017-11-23T12:10:13.280Z,100969.78
2017-11-23T12:12:47.589Z,100961.22
2017-11-23T12:18:27.838Z,100965.00
2017-11-23T12:21:08.756Z,100962.80
2017-11-23T12:23:45.913Z,100947.44
2017-11-23T12:26:14.944Z,100946.91
2017-11-23T12:28:56.655Z,100941.25
2017-11-23T12:31:25.529Z,100948.47
2017-11-23T12:33:54.430Z,100941.25
2017-11-23T12:36:25.550Z,100932.79
2017-11-23T12:38:54.417Z,100935.88
2017-11-23T12:41:23.364Z,100945.66
2017-11-23T12:43:52.412Z,100942.38
2017-11-23T12:46:21.201Z,100943.30
2017-11-23T12:48:50.079Z,100944.59
2017-11-23T12:51:18.944Z,100945.91
2017-11-23T12:53:47.873Z,100945.96
2017-11-23T12:56:16.784Z,100944.67
2017-11-23T12:58:45.666Z,100951.94
2017-11-23T13:01:14.515Z,100954.55
2017-11-23T13:03:43.358Z,100952.88
2017-11-23T13:06:12.269Z,100955.82
2017-11-23T13:08:41.189Z,100952.41
2017-11-23T13:11:09.987Z,100963.45
2017-11-23T13:16:13.389Z,100960.09
2017-11-23T13:18:42.197Z,100958.83
2017-11-23T13:21:11.108Z,100963.50
2017-11-23T13:23:39.952Z,100963.52
2017-11-23T13:26:08.866Z,100957.16
2017-11-23T13:31:11.816Z,100956.31
2017-11-23T13:33:40.707Z,100954.63
2017-11-23T13:36:09.683Z,100959.28
2017-11-23T13:38:38.538Z,100962.69
2017-11-23T13:41:07.331Z,100966.94
2017-11-23T13:43:36.999Z,100965.67
2017-11-23T13:46:05.844Z,100967.77
2017-11-23T13:48:34.739Z,100974.12
2017-11-23T13:51:03.741Z,100977.10
2017-11-23T13:53:32.700Z,100988.94
2017-11-23T13:56:01.543Z,100987.67
2017-11-23T13:58:31.785Z,100987.28
2017-11-23T14:01:00.601Z,100998.28
2017-11-23T14:03:29.635Z,100995.30
2017-11-23T14:05:59.762Z,100995.30
2017-11-23T14:08:28.664Z,100992.33
2017-11-23T14:10:57.527Z,100995.72
2017-11-23T14:13:28.097Z,100992.76
2017-11-23T14:15:56.992Z,100996.19
2017-11-23T14:18:25.823Z,100998.31
2017-11-23T14:20:54.731Z,100996.11
2017-11-23T14:23:23.573Z,100995.66
2017-11-23T14:25:52.403Z,100997.37
2017-11-23T14:28:21.522Z,101001.18
2017-11-23T14:30:50.356Z,101002.05
2017-11-23T14:33:19.201Z,100999.12
2017-11-23T14:35:49.920Z,100993.60
2017-11-23T14:38:18.882Z,100994.45
2017-11-23T14:40:47.692Z,100992.33
2017-11-23T14:43:16.530Z,100988.47
2017-11-23T14:45:45.368Z,100991.90
2017-11-23T14:48:14.264Z,100985.92
2017-11-23T14:50:43.337Z,100982.94
2017-11-23T14:53:12.175Z,100988.88
2017-11-23T14:55:40.996Z,100988.45
2017-11-23T14:58:10.705Z,100986.27
2017-11-23T15:00:39.635Z,100989.64
2017-11-23T15:03:08.528Z,100989.66
2017-11-23T15:05:37.423Z,100991.77
2017-11-23T15:08:06.206Z,100986.69
2017-11-23T15:10:35.039Z,100990.08
2017-11-23T15:13:04.844Z,100991.36
2017-11-23T15:15:33.732Z,100987.95
2017-11-23T15:18:02.623Z,100987.94
2017-11-23T15:20:32.564Z,100992.19
2017-11-23T15:23:01.362Z,100998.91
2017-11-23T15:25:30.213Z,100998.48
2017-11-23T15:28:00.061Z,101000.66
2017-11-23T15:30:29.036Z,101005.34
2017-11-23T15:32:57.923Z,101005.34
2017-11-23T15:35:26.812Z,101010.41
2017-11-23T15:37:55.640Z,101001.45
2017-11-23T15:40:24.459Z,101007.40
2017-11-23T15:42:56.556Z,101014.59
2017-11-23T15:45:25.378Z,101018.83
2017-11-23T15:47:54.232Z,101015.45
2017-11-23T15:50:23.139Z,101012.05
2017-11-23T15:52:52.026Z,101015.36
2017-11-23T15:55:21.021Z,101011.58
2017-11-23T15:57:49.866Z,101018.37
2017-11-23T16:00:18.744Z,101014.14
2017-11-23T16:02:47.716Z,101012.77
2017-11-23T16:05:16.626Z,101016.23
2017-11-23T16:07:45.599Z,101016.27
2017-11-23T16:10:14.504Z,101019.66
2017-11-23T16:12:44.407Z,101017.48
2017-11-23T16:15:13.324Z,101023.86
2017-11-23T16:17:42.203Z,101026.76
2017-11-23T16:20:11.162Z,101023.83
2017-11-23T16:22:40.771Z,101026.73
2017-11-23T16:25:09.621Z,101025.88
2017-11-23T16:27:40.300Z,101034.36
2017-11-23T16:30:09.275Z,101028.33
2017-11-23T16:32:38.150Z,101032.20
2017-11-23T16:37:41.559Z,101037.72
2017-11-23T16:40:21.247Z,101040.25
2017-11-23T16:43:05.845Z,101038.13
2017-11-23T16:45:40.428Z,101041.84
2017-11-23T16:48:14.781Z,101045.17
2017-11-23T16:50:50.494Z,101045.52
2017-11-23T16:53:24.955Z,101048.89
2017-11-23T16:59:22.238Z,101041.55
2017-11-23T17:01:56.573Z,101040.23
2017-11-23T17:04:47.367Z,101035.05
2017-11-23T17:07:22.932Z,101040.50
2017-11-23T17:10:02.495Z,101040.45
2017-11-23T17:12:41.708Z,101044.67
2017-11-23T17:15:17.190Z,101044.67
2017-11-23T17:17:54.997Z,101045.09
2017-11-23T17:20:23.834Z,101042.97
2017-11-23T17:22:52.697Z,101043.34
2017-11-23T17:25:22.484Z,101037.48
2017-11-23T17:27:51.503Z,101032.00
2017-11-23T17:30:20.366Z,101036.14
2017-11-23T17:32:49.440Z,101040.39
2017-11-23T17:35:18.355Z,101039.18
2017-11-23T17:37:47.231Z,101031.58
2017-11-23T17:40:17.161Z,101029.97
2017-11-23T17:42:46.088Z,101033.44
2017-11-23T17:45:14.936Z,101035.15
2017-11-23T17:47:43.886Z,101033.48
2017-11-23T17:50:12.824Z,101035.66
2017-11-23T17:52:41.867Z,101032.34
2017-11-23T17:55:13.415Z,101034.91
2017-11-23T17:57:42.306Z,101033.64
2017-11-23T18:00:11.167Z,101034.97
2017-11-23T18:02:40.183Z,101028.66
2017-11-23T18:05:09.073Z,101031.63
2017-11-23T18:07:37.945Z,101032.50
2017-11-23T18:10:06.854Z,101027.00
2017-11-23T18:12:35.781Z,101035.94
2017-11-23T18:15:04.672Z,101026.20
2017-11-23T18:20:08.316Z,101030.94
2017-11-23T18:22:38.494Z,101029.67
2017-11-23T18:25:07.693Z,101033.49
2017-11-23T18:27:36.983Z,101028.45
2017-11-23T18:30:11.453Z,101029.34
2017-11-23T18:32:40.627Z,101030.61
2017-11-23T18:35:09.537Z,101028.44
2017-11-23T18:37:40.186Z,101029.69
2017-11-23T18:42:37.025Z,101035.61
2017-11-23T18:45:06.042Z,101032.64
2017-11-23T18:47:35.044Z,101036.89
2017-11-23T18:50:03.924Z,101035.19
2017-11-23T18:52:32.806Z,101033.89
2017-11-23T18:55:01.725Z,101031.76
2017-11-23T18:57:30.561Z,101030.45
2017-11-23T19:00:00.543Z,101032.55
2017-11-23T19:02:29.430Z,101026.59
2017-11-23T19:04:58.277Z,101018.96
2017-11-23T19:07:28.108Z,101026.16
2017-11-23T19:09:56.944Z,101022.73
2017-11-23T19:12:25.807Z,101015.97
2017-11-23T19:14:54.818Z,101013.42
2017-11-23T19:17:23.640Z,101016.81
2017-11-23T19:19:54.277Z,101013.77
2017-11-23T19:22:26.608Z,101014.98
2017-11-23T19:25:01.567Z,101010.66
2017-11-23T19:27:31.166Z,101012.27
2017-11-23T19:30:00.206Z,101016.86
2017-11-23T19:32:29.187Z,101012.97
2017-11-23T19:34:58.213Z,101016.75
2017-11-23T19:37:27.068Z,101017.48
2017-11-23T19:39:55.941Z,101020.39
2017-11-23T19:42:24.887Z,101024.59
2017-11-23T19:44:53.760Z,101019.83
2017-11-23T19:47:22.598Z,101025.30
2017-11-23T19:49:53.340Z,101018.91
2017-11-23T19:52:22.200Z,101022.21
2017-11-23T19:54:52.650Z,101023.42
2017-11-23T19:57:21.661Z,101026.32
2017-11-23T19:59:50.529Z,101029.64
2017-11-23T20:02:19.380Z,101026.59
2017-11-23T20:04:49.170Z,101027.43
2017-11-23T20:07:18.049Z,101036.75
2017-11-23T20:09:46.936Z,101035.05
2017-11-23T20:12:16.644Z,101035.50
2017-11-23T20:14:45.488Z,101027.88
2017-11-23T20:17:14.502Z,101030.37
2017-11-23T20:19:43.517Z,101022.66
2017-11-23T20:22:12.437Z,101020.46
2017-11-23T20:24:41.379Z,101024.75
2017-11-23T20:27:10.488Z,101026.80
2017-11-23T20:29:39.382Z,101029.75
2017-11-23T20:32:13.169Z,101032.08
2017-11-23T20:34:44.072Z,101026.58
2017-11-23T20:37:12.885Z,101026.86
2017-11-23T20:39:41.815Z,101034.45
2017-11-23T20:42:11.560Z,101035.30
2017-11-23T20:44:40.846Z,101033.98
2017-11-23T20:47:09.701Z,101041.98
2017-11-23T20:49:46.691Z,101037.75
2017-11-23T20:52:16.907Z,101038.90
2017-11-23T20:54:45.854Z,101042.22
2017-11-23T20:57:14.987Z,101040.00
2017-11-23T20:59:43.825Z,101043.36
2017-11-23T21:02:12.663Z,101051.36
2017-11-23T21:04:43.426Z,101048.84
2017-11-23T21:07:12.372Z,101047.63
2017-11-23T21:09:41.188Z,101046.40
2017-11-23T21:12:10.963Z,101047.29
2017-11-23T21:14:39.904Z,101056.63
2017-11-23T21:17:08.761Z,101056.16
2017-11-23T21:19:37.849Z,101056.95
2017-11-23T21:22:06.777Z,101059.95
2017-11-23T21:24:36.461Z,101061.14
2017-11-23T21:27:05.497Z,101061.59
2017-11-23T21:29:34.517Z,101063.33
2017-11-23T21:32:03.377Z,101062.90
2017-11-23T21:34:33.203Z,101062.92
2017-11-23T21:37:01.996Z,101061.56
2017-11-23T21:39:31.098Z,101067.02
2017-11-23T21:42:00.904Z,101058.65
2017-11-23T21:44:29.749Z,101059.48
2017-11-23T21:46:58.590Z,101057.78
2017-11-23T21:49:27.622Z,101064.95
2017-11-23T21:51:56.489Z,101064.91
2017-11-23T21:54:25.399Z,101070.87
2017-11-23T21:56:55.434Z,101065.45
2017-11-23T21:59:24.264Z,101060.35
2017-11-23T22:01:53.125Z,101059.82
2017-11-23T22:04:22.243Z,101059.81
2017-11-23T22:06:51.297Z,101056.88
2017-11-23T22:09:20.143Z,101058.17
2017-11-23T22:11:49.127Z,101051.44
2017-11-23T22:14:18.238Z,101051.86
2017-11-23T22:16:47.180Z,101046.42
2017-11-23T22:19:16.376Z,101046.05
2017-11-23T22:21:45.437Z,101040.98
2017-11-23T22:24:14.295Z,101039.34
2017-11-23T22:26:43.338Z,101037.72
2017-11-23T22:29:12.162Z,101041.13
2017-11-23T22:31:41.013Z,101036.94
2017-11-23T22:34:09.923Z,101036.14
2017-11-23T22:36:38.811Z,101028.53
2017-11-23T22:39:07.862Z,101034.48
2017-11-23T22:41:36.895Z,101036.61
2017-11-23T22:44:05.815Z,101031.22
2017-11-23T22:46:34.654Z,101035.52
2017-11-23T22:49:04.596Z,101029.22
2017-11-23T22:51:33.425Z,101022.38
2017-11-23T22:54:02.253Z,101021.11
2017-11-23T22:56:31.366Z,101013.92
2017-11-23T22:59:00.301Z,101013.18
2017-11-23T23:01:29.132Z,101016.16
2017-11-23T23:03:58.865Z,101018.69
2017-11-23T23:06:27.736Z,101017.80
2017-11-23T23:08:56.603Z,101014.36
2017-11-23T23:11:25.570Z,101011.82
2017-11-23T23:13:54.468Z,101016.38
2017-11-23T23:16:23.414Z,101012.12
2017-11-23T23:18:52.296Z,101005.90
2017-11-23T23:21:21.114Z,101012.72
2017-11-23T23:23:49.918Z,101002.58
2017-11-23T23:26:18.833Z,101003.01
2017-11-23T23:28:47.699Z,101010.09
2017-11-23T23:31:16.612Z,101009.20
2017-11-23T23:33:46.623Z,101009.27
2017-11-23T23:36:15.582Z,101009.61
2017-11-23T23:38:44.472Z,101008.69
2017-11-23T23:41:13.387Z,101010.36
2017-11-23T23:43:42.418Z,101013.31
2017-11-23T23:46:12.565Z,101012.83
2017-11-23T23:48:42.477Z,101008.16
2017-11-23T23:51:11.286Z,101006.83
2017-11-23T23:53:41.020Z,101003.94
2017-11-23T23:56:10.749Z,101009.90
2017-11-23T23:58:39.750Z,101011.13
